Terminal Aerodrome Forecast
Issued by NWS

Home | Current Version | Previous Version | Text Only | Print | Product List | Glossary On
Versions: 1 2 3 4 5 6 7 8 9 10 11 12 13 14 15 16 17 18 19 20 21 22 23
000
FTUS43 KMQT 290911 AAA
TAFIWD
TAF AMD
KIWD 290911Z 2909/3006 28008KT 2SM -FZDZSN BR OVC004
     FM291100 30011KT 3SM -FZDZSN BR OVC006
     FM291300 32012G21KT 5SM -SHSN OVC012
     FM291700 31016G24KT 5SM -SHSN OVC015
     FM300100 33012KT P6SM -SHSN OVC012
     FM300500 31008KT 4SM -SHSN OVC008
      AMD LTD TO CLD VIS AND WIND=

USA.gov is the U.S. government's official web portal to all federal, state and local government web resources and services.